createdAt,value
2019-06-27T00:01:04.738Z,20.73
2019-06-27T00:03:33.268Z,20.66
2019-06-27T00:06:01.503Z,20.61
2019-06-27T00:08:29.710Z,20.53
2019-06-27T00:10:58.023Z,20.48
2019-06-27T00:13:26.219Z,20.43
2019-06-27T00:15:54.758Z,20.40
2019-06-27T00:18:23.382Z,20.39
2019-06-27T00:20:53.166Z,20.38
2019-06-27T00:23:21.814Z,20.36
2019-06-27T00:25:50.424Z,20.31
2019-06-27T00:28:18.983Z,20.22
2019-06-27T00:30:47.612Z,20.14
2019-06-27T00:33:15.957Z,20.08
2019-06-27T00:35:44.531Z,20.04
2019-06-27T00:38:12.807Z,20.01
2019-06-27T00:40:40.977Z,20.00
2019-06-27T00:43:09.458Z,20.00
2019-06-27T00:45:37.709Z,20.00
2019-06-27T00:48:05.281Z,20.03
2019-06-27T00:50:33.216Z,20.02
2019-06-27T00:53:01.747Z,19.98
2019-06-27T00:55:29.588Z,19.92
2019-06-27T00:57:58.244Z,19.92
2019-06-27T01:00:26.837Z,19.88
2019-06-27T01:02:55.123Z,19.84
2019-06-27T01:05:22.916Z,19.81
2019-06-27T01:07:51.166Z,19.78
2019-06-27T01:10:19.358Z,19.74
2019-06-27T01:12:47.281Z,19.73
2019-06-27T01:15:15.400Z,19.78
2019-06-27T01:17:43.988Z,19.85
2019-06-27T01:20:13.367Z,19.96
2019-06-27T01:22:42.001Z,19.99
2019-06-27T01:25:09.543Z,20.08
2019-06-27T01:27:38.142Z,20.15
2019-06-27T01:30:07.120Z,20.21
2019-06-27T01:32:35.718Z,20.23
2019-06-27T01:35:04.470Z,20.24
2019-06-27T01:37:32.779Z,20.24
2019-06-27T01:40:00.678Z,20.20
2019-06-27T01:42:28.942Z,20.18
2019-06-27T01:45:01.834Z,20.07
2019-06-27T01:47:30.445Z,19.95
2019-06-27T01:49:58.935Z,19.90
2019-06-27T01:52:27.097Z,19.86
2019-06-27T01:54:54.564Z,19.84
2019-06-27T01:57:22.492Z,19.86
2019-06-27T01:59:51.123Z,19.81
2019-06-27T02:02:19.318Z,19.74
2019-06-27T02:04:47.572Z,19.65
2019-06-27T02:07:15.784Z,19.63
2019-06-27T02:09:44.324Z,19.61
2019-06-27T02:12:12.114Z,19.61
2019-06-27T02:14:40.383Z,19.59
2019-06-27T02:17:08.920Z,19.56
2019-06-27T02:19:37.265Z,19.77
2019-06-27T02:22:04.818Z,19.77
2019-06-27T02:24:32.775Z,19.65
2019-06-27T02:27:01.013Z,19.56
2019-06-27T02:29:29.579Z,19.46
2019-06-27T02:31:58.089Z,19.42
2019-06-27T02:34:26.645Z,19.34
2019-06-27T02:36:55.370Z,19.30
2019-06-27T02:39:23.944Z,19.33
2019-06-27T02:41:51.729Z,19.37
2019-06-27T02:44:20.314Z,19.32
2019-06-27T02:46:48.629Z,19.37
2019-06-27T02:49:16.864Z,19.36
2019-06-27T02:51:44.777Z,19.40
2019-06-27T02:54:12.713Z,19.34
2019-06-27T02:56:41.390Z,19.29
2019-06-27T02:59:09.304Z,19.23
2019-06-27T03:01:37.866Z,19.19
2019-06-27T03:04:05.786Z,19.17
2019-06-27T03:06:34.039Z,19.15
2019-06-27T03:09:02.630Z,19.11
2019-06-27T03:11:30.992Z,19.06
2019-06-27T03:13:59.196Z,19.02
2019-06-27T03:16:27.781Z,18.97
2019-06-27T03:18:56.169Z,19.05
2019-06-27T03:21:24.451Z,19.05
2019-06-27T03:23:52.903Z,19.03
2019-06-27T03:26:21.115Z,19.00
2019-06-27T03:28:53.174Z,19.01
2019-06-27T03:31:19.521Z,19.01
2019-06-27T03:33:48.053Z,18.96
2019-06-27T03:36:16.290Z,18.98
2019-06-27T03:38:44.492Z,19.04
2019-06-27T03:41:13.117Z,18.98
2019-06-27T03:43:41.639Z,18.97
2019-06-27T03:46:09.926Z,18.96
2019-06-27T03:48:38.528Z,18.96
2019-06-27T03:51:06.722Z,18.91
2019-06-27T03:53:35.277Z,18.86
2019-06-27T03:56:03.558Z,18.89
2019-06-27T03:58:31.439Z,18.89
2019-06-27T04:00:58.974Z,18.93
2019-06-27T04:03:26.551Z,19.10
2019-06-27T04:05:54.450Z,19.06
2019-06-27T04:08:23.033Z,19.04
2019-06-27T04:10:51.669Z,19.05
2019-06-27T04:13:19.501Z,19.05
2019-06-27T04:15:48.073Z,19.05
2019-06-27T04:18:16.682Z,19.03
2019-06-27T04:20:44.542Z,19.05
2019-06-27T04:23:12.755Z,19.05
2019-06-27T04:25:41.006Z,19.06
2019-06-27T04:28:08.600Z,19.08
2019-06-27T04:30:36.752Z,19.09
2019-06-27T04:33:05.032Z,19.14
2019-06-27T04:35:33.731Z,19.20
2019-06-27T04:38:01.903Z,19.25
2019-06-27T04:40:30.395Z,19.32
2019-06-27T04:42:58.624Z,19.42
2019-06-27T04:45:27.255Z,19.50
2019-06-27T04:47:55.194Z,19.61
2019-06-27T04:50:23.830Z,19.72
2019-06-27T04:52:52.112Z,19.77
2019-06-27T04:55:20.086Z,19.81
2019-06-27T04:57:48.003Z,19.84
2019-06-27T05:00:24.756Z,19.92
2019-06-27T05:02:53.163Z,19.95
2019-06-27T05:05:21.741Z,20.11
2019-06-27T05:07:49.675Z,20.22
2019-06-27T05:10:18.265Z,20.27
2019-06-27T05:12:46.786Z,20.41
2019-06-27T05:15:14.942Z,20.45
2019-06-27T05:17:43.115Z,20.41
2019-06-27T05:20:11.477Z,20.39
2019-06-27T05:22:40.009Z,20.42
2019-06-27T05:25:07.734Z,20.45
2019-06-27T05:27:35.931Z,20.51
2019-06-27T05:30:09.230Z,20.59
2019-06-27T05:32:33.619Z,20.81
2019-06-27T05:35:02.260Z,20.85
2019-06-27T05:37:30.641Z,20.90
2019-06-27T05:39:58.231Z,20.96
2019-06-27T05:42:26.485Z,21.03
2019-06-27T05:44:55.015Z,21.11
2019-06-27T05:47:23.626Z,21.18
2019-06-27T05:49:51.518Z,21.28
2019-06-27T05:52:20.079Z,21.41
2019-06-27T05:54:47.972Z,21.58
2019-06-27T05:57:16.157Z,21.82
2019-06-27T05:59:44.770Z,21.96
2019-06-27T06:02:13.319Z,22.08
2019-06-27T06:04:41.921Z,22.36
2019-06-27T06:07:09.801Z,22.48
2019-06-27T06:09:37.325Z,22.49
2019-06-27T06:12:05.528Z,22.55
2019-06-27T06:14:34.049Z,22.67
2019-06-27T06:17:02.415Z,23.00
2019-06-27T06:19:30.277Z,23.16
2019-06-27T06:21:58.865Z,23.33
2019-06-27T06:24:27.031Z,23.36
2019-06-27T06:26:55.564Z,23.40
2019-06-27T06:29:23.392Z,23.46
2019-06-27T06:31:52.109Z,23.56
2019-06-27T06:34:20.227Z,23.64
2019-06-27T06:36:48.132Z,23.72
2019-06-27T06:39:15.978Z,23.81
2019-06-27T06:41:44.681Z,23.91
2019-06-27T06:44:12.172Z,24.00
2019-06-27T06:46:40.151Z,24.25
2019-06-27T06:49:08.011Z,24.32
2019-06-27T06:51:36.293Z,24.41
2019-06-27T06:54:04.594Z,24.49
2019-06-27T06:56:33.221Z,24.53
2019-06-27T06:59:01.858Z,24.55
2019-06-27T07:01:30.074Z,24.52
2019-06-27T07:03:58.805Z,24.56
2019-06-27T07:06:27.269Z,24.58
2019-06-27T07:08:55.928Z,24.66
2019-06-27T07:11:24.594Z,24.71
2019-06-27T07:13:53.199Z,24.67
2019-06-27T07:16:21.682Z,24.67
2019-06-27T07:18:50.367Z,24.67
2019-06-27T07:21:18.252Z,24.72
2019-06-27T07:23:46.770Z,24.68
2019-06-27T07:26:15.398Z,24.72
2019-06-27T07:28:43.787Z,24.80
2019-06-27T07:31:17.838Z,24.89
2019-06-27T07:33:42.835Z,24.95
2019-06-27T07:36:11.112Z,25.07
2019-06-27T07:38:39.135Z,25.13
2019-06-27T07:41:06.959Z,25.13
2019-06-27T07:43:35.505Z,25.20
2019-06-27T07:46:03.408Z,25.25
2019-06-27T07:48:31.285Z,25.26
2019-06-27T07:50:59.512Z,25.31
2019-06-27T07:53:27.805Z,25.28
2019-06-27T07:55:55.731Z,25.17
2019-06-27T07:58:24.374Z,25.16
2019-06-27T08:00:52.611Z,25.13
2019-06-27T08:03:21.382Z,25.09
2019-06-27T08:05:49.691Z,25.12
2019-06-27T08:08:17.956Z,25.18
2019-06-27T08:10:46.205Z,25.20
2019-06-27T08:13:14.976Z,25.24
2019-06-27T08:15:43.411Z,25.24
2019-06-27T08:18:12.025Z,25.36
2019-06-27T08:20:40.793Z,25.39
2019-06-27T08:23:09.160Z,25.46
2019-06-27T08:25:37.488Z,25.43
2019-06-27T08:28:05.385Z,25.45
2019-06-27T08:30:33.315Z,25.50
2019-06-27T08:33:01.143Z,25.49
2019-06-27T08:35:33.422Z,25.55
2019-06-27T08:38:00.439Z,25.63
2019-06-27T08:40:28.967Z,25.63
2019-06-27T08:42:56.810Z,25.71
2019-06-27T08:45:24.881Z,25.72
2019-06-27T08:47:52.722Z,25.80
2019-06-27T08:50:21.446Z,25.81
2019-06-27T08:52:49.385Z,25.85
2019-06-27T08:55:17.723Z,25.80
2019-06-27T08:57:45.574Z,25.85
2019-06-27T09:00:13.310Z,25.88
2019-06-27T09:02:41.282Z,25.93
2019-06-27T09:05:09.155Z,26.00
2019-06-27T09:07:37.888Z,25.97
2019-06-27T09:10:06.542Z,25.94
2019-06-27T09:12:34.406Z,25.98
2019-06-27T09:15:02.663Z,26.05
2019-06-27T09:17:31.021Z,26.14
2019-06-27T09:19:59.780Z,26.17
2019-06-27T09:22:28.140Z,26.28
2019-06-27T09:24:56.440Z,26.27
2019-06-27T09:27:24.624Z,26.31
2019-06-27T09:29:53.214Z,26.38
2019-06-27T09:32:25.951Z,26.41
2019-06-27T09:34:51.946Z,26.45
2019-06-27T09:37:20.508Z,26.48
2019-06-27T09:39:48.711Z,26.53
2019-06-27T09:42:17.291Z,26.60
2019-06-27T09:44:45.665Z,26.72
2019-06-27T09:47:14.209Z,26.77
2019-06-27T09:49:42.551Z,26.77
2019-06-27T09:52:10.718Z,26.76
2019-06-27T09:54:38.908Z,26.89
2019-06-27T09:57:07.167Z,26.96
2019-06-27T09:59:35.758Z,27.08
2019-06-27T10:02:04.063Z,27.07
2019-06-27T10:04:31.985Z,27.25
2019-06-27T10:07:00.307Z,27.53
2019-06-27T10:09:29.063Z,27.56
2019-06-27T10:11:56.678Z,27.54
2019-06-27T10:14:25.168Z,27.50
2019-06-27T10:16:53.146Z,27.41
2019-06-27T10:19:21.163Z,27.56
2019-06-27T10:21:49.486Z,27.50
2019-06-27T10:24:17.776Z,27.45
2019-06-27T10:26:45.325Z,27.50
2019-06-27T10:29:13.268Z,27.58
2019-06-27T10:31:41.707Z,27.60
2019-06-27T10:34:10.409Z,27.71
2019-06-27T10:36:39.078Z,27.77
2019-06-27T10:39:06.261Z,27.96
2019-06-27T10:41:34.157Z,28.08
2019-06-27T10:44:02.492Z,28.24
2019-06-27T10:46:30.780Z,28.28
2019-06-27T10:48:59.063Z,28.25
2019-06-27T10:51:27.647Z,28.49
2019-06-27T10:53:56.249Z,28.69
2019-06-27T10:56:24.519Z,28.83
2019-06-27T10:58:52.823Z,28.86
2019-06-27T11:01:21.410Z,28.74
2019-06-27T11:03:49.730Z,28.74
2019-06-27T11:06:17.619Z,28.71
2019-06-27T11:08:46.230Z,29.15
2019-06-27T11:11:14.105Z,29.16
2019-06-27T11:13:57.975Z,28.86
2019-06-27T11:16:13.233Z,29.10
2019-06-27T11:18:41.778Z,28.99
2019-06-27T11:21:13.668Z,28.88
2019-06-27T11:23:40.223Z,28.97
2019-06-27T11:26:09.640Z,29.41
2019-06-27T11:28:38.432Z,29.58
2019-06-27T11:31:07.033Z,29.89
2019-06-27T11:33:35.283Z,30.03
2019-06-27T11:36:03.701Z,29.72
2019-06-27T11:38:32.172Z,29.72
2019-06-27T11:41:00.119Z,29.66
2019-06-27T11:43:28.713Z,29.78
2019-06-27T11:45:57.320Z,29.73
2019-06-27T11:48:25.634Z,29.89
2019-06-27T11:50:54.208Z,30.13
2019-06-27T11:53:22.518Z,29.84
2019-06-27T11:55:50.864Z,29.71
2019-06-27T11:58:19.503Z,29.53
2019-06-27T12:00:47.832Z,29.45
2019-06-27T12:03:15.721Z,30.26
2019-06-27T12:05:43.997Z,30.42
2019-06-27T12:08:12.672Z,30.42
2019-06-27T12:10:40.961Z,30.25
2019-06-27T12:13:09.172Z,30.11
2019-06-27T12:15:37.432Z,29.84
2019-06-27T12:18:05.602Z,29.72
2019-06-27T12:20:33.168Z,29.77
2019-06-27T12:23:01.041Z,29.83
2019-06-27T12:25:29.383Z,30.12
2019-06-27T12:27:57.601Z,30.02
2019-06-27T12:30:26.364Z,29.93
2019-06-27T12:32:54.907Z,29.72
2019-06-27T12:35:23.164Z,29.66
2019-06-27T12:37:51.134Z,29.95
2019-06-27T12:40:19.248Z,30.82
2019-06-27T12:42:48.550Z,30.84
2019-06-27T12:45:17.331Z,31.32
2019-06-27T12:47:45.618Z,31.01
2019-06-27T12:50:16.103Z,31.11
2019-06-27T12:52:44.420Z,31.28
2019-06-27T12:55:12.184Z,31.24
2019-06-27T12:57:40.805Z,31.15
2019-06-27T13:00:09.810Z,31.44
2019-06-27T13:02:38.122Z,31.63
2019-06-27T13:05:07.042Z,31.47
2019-06-27T13:07:35.663Z,31.58
2019-06-27T13:10:03.591Z,31.40
2019-06-27T13:12:31.574Z,31.24
2019-06-27T13:14:59.832Z,31.29
2019-06-27T13:17:27.879Z,31.54
2019-06-27T13:19:55.652Z,31.91
2019-06-27T13:22:23.695Z,32.80
2019-06-27T13:24:51.996Z,32.40
2019-06-27T13:27:20.680Z,32.38
2019-06-27T13:29:48.580Z,32.57
2019-06-27T13:32:16.947Z,33.40
2019-06-27T13:34:45.105Z,34.43
2019-06-27T13:37:13.103Z,34.80
2019-06-27T13:39:41.397Z,35.12
2019-06-27T13:42:10.049Z,35.11
2019-06-27T13:44:38.338Z,35.40
2019-06-27T13:47:09.649Z,35.86
2019-06-27T13:49:37.899Z,35.80
2019-06-27T13:52:05.854Z,36.54
2019-06-27T13:54:34.432Z,37.51
2019-06-27T13:57:02.645Z,38.23
2019-06-27T13:59:30.905Z,38.42
2019-06-27T14:01:59.251Z,38.54
2019-06-27T14:04:27.155Z,38.41
2019-06-27T14:06:55.968Z,38.54
2019-06-27T14:09:24.601Z,38.47
2019-06-27T14:11:53.232Z,37.81
2019-06-27T14:14:20.882Z,37.43
2019-06-27T14:16:49.486Z,37.47
2019-06-27T14:21:40.500Z,37.55
2019-06-27T14:24:09.147Z,37.98
2019-06-27T14:26:37.821Z,38.32
2019-06-27T14:29:06.076Z,38.68
2019-06-27T14:31:34.659Z,38.07
2019-06-27T14:34:03.070Z,38.32
2019-06-27T14:36:31.264Z,38.18
2019-06-27T14:38:59.766Z,38.46
2019-06-27T14:41:28.006Z,39.00
2019-06-27T14:43:56.536Z,39.15
2019-06-27T14:46:24.099Z,39.53
2019-06-27T14:48:51.999Z,39.00
2019-06-27T14:51:19.929Z,38.65
2019-06-27T14:53:47.493Z,38.69
2019-06-27T14:56:16.149Z,38.49
2019-06-27T14:58:44.449Z,38.45
2019-06-27T15:01:12.581Z,38.31
2019-06-27T15:03:41.220Z,38.50
2019-06-27T15:06:12.231Z,38.23
2019-06-27T15:08:39.634Z,38.09
2019-06-27T15:11:07.515Z,37.79
2019-06-27T15:13:36.012Z,37.97
2019-06-27T15:16:11.708Z,37.79
2019-06-27T15:18:34.699Z,37.49
2019-06-27T15:21:03.334Z,37.35
2019-06-27T15:23:31.809Z,37.13
2019-06-27T15:26:00.128Z,36.96
2019-06-27T15:28:28.365Z,36.55
2019-06-27T15:30:56.638Z,35.82
2019-06-27T15:33:25.353Z,35.60
2019-06-27T15:35:53.639Z,35.26
2019-06-27T15:38:22.417Z,34.81
2019-06-27T15:40:50.801Z,34.11
2019-06-27T15:43:19.017Z,33.83
2019-06-27T15:45:47.404Z,33.23
2019-06-27T15:48:15.946Z,33.15
2019-06-27T15:50:44.524Z,32.88
2019-06-27T15:53:12.741Z,32.47
2019-06-27T15:55:40.610Z,32.14
2019-06-27T15:58:08.199Z,32.03
2019-06-27T16:00:39.323Z,32.14
2019-06-27T16:03:06.759Z,31.93
2019-06-27T16:05:35.086Z,31.73
2019-06-27T16:08:03.881Z,31.48
2019-06-27T16:10:32.105Z,31.28
2019-06-27T16:13:02.723Z,31.09
2019-06-27T16:15:31.134Z,31.00
2019-06-27T16:17:59.813Z,30.86
2019-06-27T16:20:27.620Z,30.79
2019-06-27T16:22:55.887Z,30.73
2019-06-27T16:25:24.390Z,30.58
2019-06-27T16:27:53.030Z,30.44
2019-06-27T16:30:21.559Z,30.46
2019-06-27T16:32:49.504Z,30.44
2019-06-27T16:35:18.025Z,30.46
2019-06-27T16:37:46.008Z,30.36
2019-06-27T16:40:14.252Z,30.23
2019-06-27T16:42:42.789Z,30.28
2019-06-27T16:45:11.060Z,30.20
2019-06-27T16:47:39.403Z,30.16
2019-06-27T16:50:07.685Z,30.07
2019-06-27T16:52:36.274Z,29.98
2019-06-27T16:55:05.385Z,29.80
2019-06-27T16:57:33.361Z,29.73
2019-06-27T17:00:01.638Z,29.53
2019-06-27T17:02:29.521Z,29.46
2019-06-27T17:04:58.153Z,29.44
2019-06-27T17:07:26.422Z,29.37
2019-06-27T17:09:55.058Z,29.33
2019-06-27T17:12:23.950Z,29.30
2019-06-27T17:14:52.246Z,29.20
2019-06-27T17:17:20.874Z,29.08
2019-06-27T17:19:49.440Z,29.04
2019-06-27T17:22:18.120Z,28.99
2019-06-27T17:24:46.418Z,28.77
2019-06-27T17:27:15.026Z,28.58
2019-06-27T17:29:43.679Z,28.43
2019-06-27T17:32:12.413Z,28.27
2019-06-27T17:34:40.803Z,28.06
2019-06-27T17:37:09.141Z,27.85
2019-06-27T17:39:37.457Z,27.73
2019-06-27T17:42:05.835Z,27.47
2019-06-27T17:44:33.749Z,27.33
2019-06-27T17:47:02.369Z,27.21
2019-06-27T17:49:30.641Z,27.13
2019-06-27T17:51:59.247Z,26.93
2019-06-27T17:54:27.864Z,26.80
2019-06-27T17:56:55.821Z,26.62
2019-06-27T17:59:23.463Z,26.46
2019-06-27T18:01:51.665Z,26.30
2019-06-27T18:04:20.138Z,26.15
2019-06-27T18:06:48.945Z,25.98
2019-06-27T18:09:17.640Z,25.84
2019-06-27T18:11:45.915Z,25.70
2019-06-27T18:14:14.241Z,25.65
2019-06-27T18:16:42.831Z,25.49
2019-06-27T18:19:10.661Z,25.39
2019-06-27T18:21:39.046Z,25.31
2019-06-27T18:24:07.829Z,25.27
2019-06-27T18:26:36.109Z,25.18
2019-06-27T18:29:04.632Z,25.16
2019-06-27T18:31:32.873Z,25.18
2019-06-27T18:34:01.267Z,25.06
2019-06-27T18:36:29.796Z,24.89
2019-06-27T18:38:57.638Z,24.77
2019-06-27T18:41:26.331Z,24.67
2019-06-27T18:43:54.936Z,24.55
2019-06-27T18:46:23.482Z,24.47
2019-06-27T18:48:52.277Z,24.40
2019-06-27T18:51:20.561Z,24.33
2019-06-27T18:53:48.542Z,24.28
2019-06-27T18:56:16.392Z,24.17
2019-06-27T18:58:45.038Z,24.09
2019-06-27T19:01:13.305Z,23.99
2019-06-27T19:03:41.912Z,23.92
2019-06-27T19:06:10.479Z,23.83
2019-06-27T19:08:38.335Z,23.78
2019-06-27T19:11:05.906Z,23.76
2019-06-27T19:13:34.313Z,23.72
2019-06-27T19:16:03.049Z,23.63
2019-06-27T19:18:49.084Z,23.60
2019-06-27T19:21:22.485Z,23.55
2019-06-27T19:23:59.251Z,23.49
2019-06-27T19:26:27.837Z,23.44
2019-06-27T19:28:56.526Z,23.37
2019-06-27T19:31:25.221Z,23.28
2019-06-27T19:33:53.297Z,23.23
2019-06-27T19:36:21.167Z,23.15
2019-06-27T19:38:49.750Z,23.06
2019-06-27T19:41:18.184Z,23.04
2019-06-27T19:43:46.858Z,22.99
2019-06-27T19:46:14.724Z,22.95
2019-06-27T19:48:45.616Z,22.87
2019-06-27T19:51:13.125Z,22.82
2019-06-27T19:53:41.327Z,22.82
2019-06-27T19:56:09.203Z,22.78
2019-06-27T19:58:37.805Z,22.71
2019-06-27T20:01:06.145Z,22.66
2019-06-27T20:03:34.838Z,22.62
2019-06-27T20:06:03.335Z,22.61
2019-06-27T20:08:31.290Z,22.56
2019-06-27T20:10:59.467Z,22.47
2019-06-27T20:13:27.062Z,22.46
2019-06-27T20:15:55.716Z,22.40
2019-06-27T20:18:23.792Z,22.40
2019-06-27T20:20:51.985Z,22.34
2019-06-27T20:23:20.269Z,22.28
2019-06-27T20:25:48.954Z,22.26
2019-06-27T20:28:17.644Z,22.16
2019-06-27T20:30:45.940Z,22.11
2019-06-27T20:33:13.907Z,22.05
2019-06-27T20:35:42.557Z,21.99
2019-06-27T20:38:11.096Z,21.90
2019-06-27T20:40:39.370Z,21.87
2019-06-27T20:43:07.861Z,21.80
2019-06-27T20:45:36.338Z,21.72
2019-06-27T20:48:05.034Z,21.63
2019-06-27T20:50:33.271Z,21.54
2019-06-27T20:53:01.637Z,21.45
2019-06-27T20:55:29.938Z,21.35
2019-06-27T20:57:58.201Z,21.20
2019-06-27T21:00:26.473Z,21.13
2019-06-27T21:02:54.348Z,21.05
2019-06-27T21:05:22.289Z,20.92
2019-06-27T21:07:50.581Z,20.84
2019-06-27T21:10:19.424Z,20.82
2019-06-27T21:12:47.245Z,20.79
2019-06-27T21:15:15.408Z,20.74
2019-06-27T21:17:43.703Z,20.71
2019-06-27T21:20:11.946Z,20.63
2019-06-27T21:22:40.469Z,20.57
2019-06-27T21:25:09.314Z,20.49
2019-06-27T21:27:37.185Z,20.44
2019-06-27T21:30:06.500Z,20.38
2019-06-27T21:32:35.167Z,20.35
2019-06-27T21:35:03.110Z,20.33
2019-06-27T21:37:31.641Z,20.29
2019-06-27T21:40:00.292Z,20.24
2019-06-27T21:42:28.979Z,20.19
2019-06-27T21:44:56.842Z,20.15
2019-06-27T21:47:25.427Z,20.11
2019-06-27T21:49:53.314Z,20.12
2019-06-27T21:52:21.175Z,20.17
2019-06-27T21:54:49.097Z,20.18
2019-06-27T21:57:17.239Z,20.19
2019-06-27T21:59:45.391Z,20.14
2019-06-27T22:02:13.949Z,20.09
2019-06-27T22:04:42.194Z,20.03
2019-06-27T22:07:10.459Z,19.97
2019-06-27T22:09:38.675Z,19.97
2019-06-27T22:12:07.262Z,19.92
2019-06-27T22:14:35.435Z,19.91
2019-06-27T22:17:03.702Z,19.91
2019-06-27T22:19:32.291Z,19.89
2019-06-27T22:22:00.807Z,19.84
2019-06-27T22:24:28.659Z,19.82
2019-06-27T22:26:56.182Z,19.78
2019-06-27T22:29:24.501Z,19.77
2019-06-27T22:31:52.368Z,19.73
2019-06-27T22:34:20.517Z,19.68
2019-06-27T22:36:48.718Z,19.66
2019-06-27T22:39:40.519Z,19.65
2019-06-27T22:42:23.052Z,19.53
2019-06-27T22:45:09.661Z,19.42
2019-06-27T22:47:55.957Z,19.47
2019-06-27T22:50:42.028Z,19.51
2019-06-27T22:53:14.759Z,19.38
2019-06-27T22:55:43.407Z,19.24
2019-06-27T22:58:12.034Z,19.16
2019-06-27T23:00:39.856Z,19.10
2019-06-27T23:03:07.330Z,19.03
2019-06-27T23:05:36.035Z,19.18
2019-06-27T23:08:04.214Z,19.19
2019-06-27T23:10:32.484Z,19.24
2019-06-27T23:13:00.872Z,19.27
2019-06-27T23:15:29.043Z,19.13
2019-06-27T23:17:57.659Z,19.02
2019-06-27T23:20:26.303Z,18.89
2019-06-27T23:22:54.126Z,18.94
2019-06-27T23:25:21.978Z,18.82
2019-06-27T23:27:50.262Z,18.56
2019-06-27T23:30:18.203Z,18.14
2019-06-27T23:32:46.419Z,18.08
2019-06-27T23:35:14.392Z,17.90
2019-06-27T23:37:41.943Z,17.83
2019-06-27T23:40:14.469Z,17.64
2019-06-27T23:42:40.777Z,17.38
2019-06-27T23:45:09.977Z,17.09
2019-06-27T23:47:38.560Z,16.84
2019-06-27T23:50:07.675Z,16.60
2019-06-27T23:52:35.955Z,16.60
2019-06-27T23:55:04.328Z,16.59
2019-06-27T23:57:31.825Z,16.56
